sensor_id;sensor_type;location;lat;lon;timestamp;P1;durP1;ratioP1;P2;durP2;ratioP2
64826;SDS011;51265;53.972;12.286;2022-09-29T00:01:59;18.85;;;12.10;;
64826;SDS011;51265;53.972;12.286;2022-09-29T00:04:25;18.40;;;11.90;;
64826;SDS011;51265;53.972;12.286;2022-09-29T00:06:51;20.45;;;12.38;;
64826;SDS011;51265;53.972;12.286;2022-09-29T00:09:17;19.80;;;12.20;;
64826;SDS011;51265;53.972;12.286;2022-09-29T00:11:43;22.33;;;13.35;;
64826;SDS011;51265;53.972;12.286;2022-09-29T00:14:09;22.80;;;13.93;;
64826;SDS011;51265;53.972;12.286;2022-09-29T00:16:35;21.77;;;12.75;;
64826;SDS011;51265;53.972;12.286;2022-09-29T00:19:01;20.13;;;12.80;;
64826;SDS011;51265;53.972;12.286;2022-09-29T00:21:27;19.75;;;12.10;;
64826;SDS011;51265;53.972;12.286;2022-09-29T00:23:53;22.45;;;13.60;;
64826;SDS011;51265;53.972;12.286;2022-09-29T00:26:23;20.45;;;12.75;;
64826;SDS011;51265;53.972;12.286;2022-09-29T00:28:50;22.75;;;13.68;;
64826;SDS011;51265;53.972;12.286;2022-09-29T00:31:18;22.38;;;12.80;;
64826;SDS011;51265;53.972;12.286;2022-09-29T00:33:45;19.92;;;12.57;;
64826;SDS011;51265;53.972;12.286;2022-09-29T00:36:12;21.15;;;12.13;;
64826;SDS011;51265;53.972;12.286;2022-09-29T00:38:40;23.00;;;13.25;;
64826;SDS011;51265;53.972;12.286;2022-09-29T00:41:10;24.08;;;13.13;;
64826;SDS011;51265;53.972;12.286;2022-09-29T00:46:28;21.65;;;12.43;;
64826;SDS011;51265;53.972;12.286;2022-09-29T00:51:54;19.98;;;12.52;;
64826;SDS011;51265;53.972;12.286;2022-09-29T00:54:28;18.00;;;10.98;;
64826;SDS011;51265;53.972;12.286;2022-09-29T00:57:02;16.92;;;11.30;;
64826;SDS011;51265;53.972;12.286;2022-09-29T00:59:31;16.77;;;10.98;;
64826;SDS011;51265;53.972;12.286;2022-09-29T01:02:30;23.77;;;11.00;;
64826;SDS011;51265;53.972;12.286;2022-09-29T01:05:00;18.67;;;11.50;;
64826;SDS011;51265;53.972;12.286;2022-09-29T01:07:31;18.92;;;11.93;;
64826;SDS011;51265;53.972;12.286;2022-09-29T01:09:58;19.60;;;11.90;;
64826;SDS011;51265;53.972;12.286;2022-09-29T01:12:25;24.15;;;13.52;;
64826;SDS011;51265;53.972;12.286;2022-09-29T01:14:51;22.30;;;13.27;;
64826;SDS011;51265;53.972;12.286;2022-09-29T01:17:18;26.13;;;14.65;;
64826;SDS011;51265;53.972;12.286;2022-09-29T01:38:44;24.27;;;13.68;;
64826;SDS011;51265;53.972;12.286;2022-09-29T01:41:16;27.10;;;13.85;;
64826;SDS011;51265;53.972;12.286;2022-09-29T01:43:52;24.23;;;13.27;;
64826;SDS011;51265;53.972;12.286;2022-09-29T01:47:23;23.70;;;13.32;;
64826;SDS011;51265;53.972;12.286;2022-09-29T01:49:34;25.58;;;13.60;;
64826;SDS011;51265;53.972;12.286;2022-09-29T01:52:14;27.75;;;14.38;;
64826;SDS011;51265;53.972;12.286;2022-09-29T01:57:20;26.02;;;14.05;;
64826;SDS011;51265;53.972;12.286;2022-09-29T02:00:05;31.52;;;14.70;;
64826;SDS011;51265;53.972;12.286;2022-09-29T02:02:49;27.23;;;14.82;;
64826;SDS011;51265;53.972;12.286;2022-09-29T02:06:06;27.65;;;14.50;;
64826;SDS011;51265;53.972;12.286;2022-09-29T02:13:18;33.47;;;16.80;;
64826;SDS011;51265;53.972;12.286;2022-09-29T02:15:47;29.20;;;15.52;;
64826;SDS011;51265;53.972;12.286;2022-09-29T02:18:17;35.28;;;16.73;;
64826;SDS011;51265;53.972;12.286;2022-09-29T02:20:47;36.42;;;16.80;;
64826;SDS011;51265;53.972;12.286;2022-09-29T02:23:15;33.13;;;15.77;;
64826;SDS011;51265;53.972;12.286;2022-09-29T02:25:41;28.17;;;15.07;;
64826;SDS011;51265;53.972;12.286;2022-09-29T02:28:09;26.98;;;14.20;;
64826;SDS011;51265;53.972;12.286;2022-09-29T02:30:35;32.03;;;14.45;;
64826;SDS011;51265;53.972;12.286;2022-09-29T02:33:01;29.63;;;14.48;;
64826;SDS011;51265;53.972;12.286;2022-09-29T02:35:28;26.80;;;14.13;;
64826;SDS011;51265;53.972;12.286;2022-09-29T02:38:05;29.40;;;14.80;;
64826;SDS011;51265;53.972;12.286;2022-09-29T02:51:17;33.90;;;15.80;;
64826;SDS011;51265;53.972;12.286;2022-09-29T03:01:24;40.58;;;17.00;;
64826;SDS011;51265;53.972;12.286;2022-09-29T03:03:51;38.45;;;18.00;;
64826;SDS011;51265;53.972;12.286;2022-09-29T03:06:17;44.53;;;19.40;;
64826;SDS011;51265;53.972;12.286;2022-09-29T03:08:45;45.53;;;20.65;;
64826;SDS011;51265;53.972;12.286;2022-09-29T03:11:11;46.28;;;20.67;;
64826;SDS011;51265;53.972;12.286;2022-09-29T03:13:37;53.08;;;21.77;;
64826;SDS011;51265;53.972;12.286;2022-09-29T03:16:03;61.78;;;23.00;;
64826;SDS011;51265;53.972;12.286;2022-09-29T03:18:29;51.83;;;22.75;;
64826;SDS011;51265;53.972;12.286;2022-09-29T03:20:55;49.60;;;22.45;;
64826;SDS011;51265;53.972;12.286;2022-09-29T03:23:21;52.70;;;21.08;;
64826;SDS011;51265;53.972;12.286;2022-09-29T03:25:47;55.72;;;23.27;;
64826;SDS011;51265;53.972;12.286;2022-09-29T03:28:13;59.88;;;22.83;;
64826;SDS011;51265;53.972;12.286;2022-09-29T03:30:41;60.83;;;23.20;;
64826;SDS011;51265;53.972;12.286;2022-09-29T03:33:07;55.75;;;21.83;;
64826;SDS011;51265;53.972;12.286;2022-09-29T03:35:33;59.45;;;22.52;;
64826;SDS011;51265;53.972;12.286;2022-09-29T03:37:59;49.08;;;21.00;;
64826;SDS011;51265;53.972;12.286;2022-09-29T03:40:26;49.15;;;21.38;;
64826;SDS011;51265;53.972;12.286;2022-09-29T03:42:53;49.70;;;19.95;;
64826;SDS011;51265;53.972;12.286;2022-09-29T03:45:19;44.90;;;20.45;;
64826;SDS011;51265;53.972;12.286;2022-09-29T03:47:45;42.63;;;20.00;;
64826;SDS011;51265;53.972;12.286;2022-09-29T03:50:11;41.97;;;18.73;;
64826;SDS011;51265;53.972;12.286;2022-09-29T03:52:38;50.58;;;20.50;;
64826;SDS011;51265;53.972;12.286;2022-09-29T03:55:04;43.00;;;19.55;;
64826;SDS011;51265;53.972;12.286;2022-09-29T03:57:30;52.78;;;21.63;;
64826;SDS011;51265;53.972;12.286;2022-09-29T03:59:56;47.45;;;21.15;;
64826;SDS011;51265;53.972;12.286;2022-09-29T04:02:22;56.45;;;24.55;;
64826;SDS011;51265;53.972;12.286;2022-09-29T04:04:48;53.20;;;23.20;;
64826;SDS011;51265;53.972;12.286;2022-09-29T04:07:14;53.70;;;21.33;;
64826;SDS011;51265;53.972;12.286;2022-09-29T04:09:40;60.40;;;22.83;;
64826;SDS011;51265;53.972;12.286;2022-09-29T04:12:06;56.28;;;23.00;;
64826;SDS011;51265;53.972;12.286;2022-09-29T04:14:32;56.45;;;23.05;;
64826;SDS011;51265;53.972;12.286;2022-09-29T04:16:58;51.70;;;22.00;;
64826;SDS011;51265;53.972;12.286;2022-09-29T04:19:24;56.15;;;23.83;;
64826;SDS011;51265;53.972;12.286;2022-09-29T04:21:50;50.88;;;22.35;;
64826;SDS011;51265;53.972;12.286;2022-09-29T04:24:16;52.17;;;21.10;;
64826;SDS011;51265;53.972;12.286;2022-09-29T04:26:42;47.45;;;21.05;;
64826;SDS011;51265;53.972;12.286;2022-09-29T04:29:09;45.88;;;20.83;;
64826;SDS011;51265;53.972;12.286;2022-09-29T04:31:35;54.33;;;22.00;;
64826;SDS011;51265;53.972;12.286;2022-09-29T04:34:01;56.58;;;23.38;;
64826;SDS011;51265;53.972;12.286;2022-09-29T04:36:27;50.47;;;21.63;;
64826;SDS011;51265;53.972;12.286;2022-09-29T04:38:53;56.95;;;22.05;;
64826;SDS011;51265;53.972;12.286;2022-09-29T04:41:19;47.65;;;20.60;;
64826;SDS011;51265;53.972;12.286;2022-09-29T04:43:45;51.58;;;21.85;;
64826;SDS011;51265;53.972;12.286;2022-09-29T04:46:11;51.45;;;21.60;;
64826;SDS011;51265;53.972;12.286;2022-09-29T04:48:38;48.58;;;22.60;;
64826;SDS011;51265;53.972;12.286;2022-09-29T04:51:04;51.03;;;21.83;;
64826;SDS011;51265;53.972;12.286;2022-09-29T04:53:31;54.50;;;22.70;;
64826;SDS011;51265;53.972;12.286;2022-09-29T04:55:57;56.50;;;23.42;;
64826;SDS011;51265;53.972;12.286;2022-09-29T04:58:22;59.80;;;22.67;;
64826;SDS011;51265;53.972;12.286;2022-09-29T05:00:48;59.83;;;24.67;;
64826;SDS011;51265;53.972;12.286;2022-09-29T05:03:14;52.65;;;21.63;;
64826;SDS011;51265;53.972;12.286;2022-09-29T05:05:40;58.75;;;22.23;;
64826;SDS011;51265;53.972;12.286;2022-09-29T05:08:06;58.72;;;22.77;;
64826;SDS011;51265;53.972;12.286;2022-09-29T05:10:33;65.90;;;25.38;;
64826;SDS011;51265;53.972;12.286;2022-09-29T05:12:59;70.78;;;24.65;;
64826;SDS011;51265;53.972;12.286;2022-09-29T05:15:25;54.22;;;23.65;;
64826;SDS011;51265;53.972;12.286;2022-09-29T05:17:51;55.47;;;21.83;;
64826;SDS011;51265;53.972;12.286;2022-09-29T05:20:17;54.58;;;22.63;;
64826;SDS011;51265;53.972;12.286;2022-09-29T05:22:43;54.13;;;22.02;;
64826;SDS011;51265;53.972;12.286;2022-09-29T05:25:09;55.22;;;22.20;;
64826;SDS011;51265;53.972;12.286;2022-09-29T05:27:36;48.28;;;19.83;;
64826;SDS011;51265;53.972;12.286;2022-09-29T05:30:02;59.65;;;21.77;;
64826;SDS011;51265;53.972;12.286;2022-09-29T05:32:29;54.58;;;22.00;;
64826;SDS011;51265;53.972;12.286;2022-09-29T05:34:55;57.05;;;23.05;;
64826;SDS011;51265;53.972;12.286;2022-09-29T05:37:22;53.00;;;21.33;;
64826;SDS011;51265;53.972;12.286;2022-09-29T05:39:48;49.40;;;21.13;;
64826;SDS011;51265;53.972;12.286;2022-09-29T05:42:14;57.13;;;23.15;;
64826;SDS011;51265;53.972;12.286;2022-09-29T05:44:40;57.70;;;22.42;;
64826;SDS011;51265;53.972;12.286;2022-09-29T05:47:06;57.55;;;23.00;;
64826;SDS011;51265;53.972;12.286;2022-09-29T05:49:32;54.65;;;23.25;;
64826;SDS011;51265;53.972;12.286;2022-09-29T05:51:58;57.85;;;22.77;;
64826;SDS011;51265;53.972;12.286;2022-09-29T05:54:24;54.25;;;22.95;;
64826;SDS011;51265;53.972;12.286;2022-09-29T05:56:52;53.95;;;21.27;;
64826;SDS011;51265;53.972;12.286;2022-09-29T05:59:18;56.05;;;23.77;;
64826;SDS011;51265;53.972;12.286;2022-09-29T06:01:44;52.35;;;21.80;;
64826;SDS011;51265;53.972;12.286;2022-09-29T06:04:10;59.17;;;22.15;;
64826;SDS011;51265;53.972;12.286;2022-09-29T06:06:36;49.40;;;20.63;;
64826;SDS011;51265;53.972;12.286;2022-09-29T06:09:05;49.15;;;21.98;;
64826;SDS011;51265;53.972;12.286;2022-09-29T06:11:31;53.08;;;22.02;;
64826;SDS011;51265;53.972;12.286;2022-09-29T06:13:57;52.05;;;21.75;;
64826;SDS011;51265;53.972;12.286;2022-09-29T06:16:25;44.33;;;20.23;;
64826;SDS011;51265;53.972;12.286;2022-09-29T06:18:53;48.05;;;21.30;;
64826;SDS011;51265;53.972;12.286;2022-09-29T06:21:20;53.50;;;22.13;;
64826;SDS011;51265;53.972;12.286;2022-09-29T06:23:51;48.00;;;21.50;;
64826;SDS011;51265;53.972;12.286;2022-09-29T06:26:18;49.35;;;21.65;;
64826;SDS011;51265;53.972;12.286;2022-09-29T06:28:46;49.67;;;21.77;;
64826;SDS011;51265;53.972;12.286;2022-09-29T06:31:14;46.38;;;21.08;;
64826;SDS011;51265;53.972;12.286;2022-09-29T06:33:42;48.60;;;19.88;;
64826;SDS011;51265;53.972;12.286;2022-09-29T06:39:03;49.13;;;22.13;;
64826;SDS011;51265;53.972;12.286;2022-09-29T06:41:30;46.17;;;20.98;;
64826;SDS011;51265;53.972;12.286;2022-09-29T06:43:56;48.55;;;22.10;;
64826;SDS011;51265;53.972;12.286;2022-09-29T06:46:22;49.05;;;21.88;;
64826;SDS011;51265;53.972;12.286;2022-09-29T06:48:52;46.50;;;21.90;;
64826;SDS011;51265;53.972;12.286;2022-09-29T06:51:19;43.92;;;21.20;;
64826;SDS011;51265;53.972;12.286;2022-09-29T06:53:47;43.28;;;19.83;;
64826;SDS011;51265;53.972;12.286;2022-09-29T06:56:14;49.70;;;21.23;;
64826;SDS011;51265;53.972;12.286;2022-09-29T06:58:40;43.40;;;21.13;;
64826;SDS011;51265;53.972;12.286;2022-09-29T07:01:06;36.58;;;19.23;;
64826;SDS011;51265;53.972;12.286;2022-09-29T07:03:32;40.55;;;20.48;;
64826;SDS011;51265;53.972;12.286;2022-09-29T07:06:03;40.80;;;20.10;;
64826;SDS011;51265;53.972;12.286;2022-09-29T07:08:30;37.47;;;18.50;;
64826;SDS011;51265;53.972;12.286;2022-09-29T07:10:56;41.13;;;20.35;;
64826;SDS011;51265;53.972;12.286;2022-09-29T07:13:24;32.78;;;18.58;;
64826;SDS011;51265;53.972;12.286;2022-09-29T07:15:50;35.75;;;19.50;;
64826;SDS011;51265;53.972;12.286;2022-09-29T07:18:16;37.67;;;19.20;;
64826;SDS011;51265;53.972;12.286;2022-09-29T07:20:42;37.28;;;19.30;;
64826;SDS011;51265;53.972;12.286;2022-09-29T07:23:09;33.55;;;18.55;;
64826;SDS011;51265;53.972;12.286;2022-09-29T07:25:35;40.17;;;18.33;;
64826;SDS011;51265;53.972;12.286;2022-09-29T07:28:01;34.70;;;19.05;;
64826;SDS011;51265;53.972;12.286;2022-09-29T07:30:27;30.75;;;17.45;;
64826;SDS011;51265;53.972;12.286;2022-09-29T07:32:53;31.90;;;17.98;;
64826;SDS011;51265;53.972;12.286;2022-09-29T07:35:23;29.65;;;16.48;;
64826;SDS011;51265;53.972;12.286;2022-09-29T07:37:49;29.02;;;16.63;;
64826;SDS011;51265;53.972;12.286;2022-09-29T07:40:16;31.48;;;17.98;;
64826;SDS011;51265;53.972;12.286;2022-09-29T07:42:42;30.92;;;16.85;;
64826;SDS011;51265;53.972;12.286;2022-09-29T07:45:08;28.30;;;15.60;;
64826;SDS011;51265;53.972;12.286;2022-09-29T07:47:34;26.75;;;15.82;;
64826;SDS011;51265;53.972;12.286;2022-09-29T07:50:00;28.50;;;15.88;;
64826;SDS011;51265;53.972;12.286;2022-09-29T07:52:26;28.58;;;15.98;;
64826;SDS011;51265;53.972;12.286;2022-09-29T07:54:52;25.77;;;16.25;;
64826;SDS011;51265;53.972;12.286;2022-09-29T07:57:18;25.35;;;16.25;;
64826;SDS011;51265;53.972;12.286;2022-09-29T07:59:44;27.10;;;16.52;;
64826;SDS011;51265;53.972;12.286;2022-09-29T08:02:10;24.88;;;15.45;;
64826;SDS011;51265;53.972;12.286;2022-09-29T08:04:37;27.15;;;17.02;;
64826;SDS011;51265;53.972;12.286;2022-09-29T08:07:19;24.63;;;15.93;;
64826;SDS011;51265;53.972;12.286;2022-09-29T08:09:45;27.65;;;17.88;;
64826;SDS011;51265;53.972;12.286;2022-09-29T08:12:11;24.95;;;16.08;;
64826;SDS011;51265;53.972;12.286;2022-09-29T08:14:37;26.83;;;16.60;;
64826;SDS011;51265;53.972;12.286;2022-09-29T08:17:04;25.00;;;15.93;;
64826;SDS011;51265;53.972;12.286;2022-09-29T08:19:30;29.15;;;16.48;;
64826;SDS011;51265;53.972;12.286;2022-09-29T08:21:55;23.30;;;14.52;;
64826;SDS011;51265;53.972;12.286;2022-09-29T08:24:21;25.83;;;14.85;;
64826;SDS011;51265;53.972;12.286;2022-09-29T08:26:48;24.10;;;15.50;;
64826;SDS011;51265;53.972;12.286;2022-09-29T08:29:14;23.13;;;14.73;;
64826;SDS011;51265;53.972;12.286;2022-09-29T08:31:40;20.83;;;14.18;;
64826;SDS011;51265;53.972;12.286;2022-09-29T08:34:07;24.33;;;14.98;;
64826;SDS011;51265;53.972;12.286;2022-09-29T08:36:34;23.98;;;13.90;;
64826;SDS011;51265;53.972;12.286;2022-09-29T08:39:01;20.15;;;13.55;;
64826;SDS011;51265;53.972;12.286;2022-09-29T08:49:38;20.95;;;13.13;;
64826;SDS011;51265;53.972;12.286;2022-09-29T08:52:19;20.38;;;12.40;;
64826;SDS011;51265;53.972;12.286;2022-09-29T08:54:50;24.23;;;11.68;;
64826;SDS011;51265;53.972;12.286;2022-09-29T08:57:21;16.52;;;11.48;;
64826;SDS011;51265;53.972;12.286;2022-09-29T09:15:57;15.50;;;10.45;;
64826;SDS011;51265;53.972;12.286;2022-09-29T09:24:43;18.55;;;11.30;;
64826;SDS011;51265;53.972;12.286;2022-09-29T09:27:12;18.20;;;11.02;;
64826;SDS011;51265;53.972;12.286;2022-09-29T09:29:43;19.83;;;11.60;;
64826;SDS011;51265;53.972;12.286;2022-09-29T09:32:12;15.40;;;11.73;;
64826;SDS011;51265;53.972;12.286;2022-09-29T09:37:22;14.90;;;10.85;;
64826;SDS011;51265;53.972;12.286;2022-09-29T09:40:14;16.92;;;10.70;;
64826;SDS011;51265;53.972;12.286;2022-09-29T09:42:53;16.88;;;11.43;;
64826;SDS011;51265;53.972;12.286;2022-09-29T09:45:33;15.90;;;10.30;;
64826;SDS011;51265;53.972;12.286;2022-09-29T09:48:10;15.43;;;9.85;;
64826;SDS011;51265;53.972;12.286;2022-09-29T09:50:40;14.65;;;9.32;;
64826;SDS011;51265;53.972;12.286;2022-09-29T09:53:19;17.83;;;10.20;;
64826;SDS011;51265;53.972;12.286;2022-09-29T10:01:43;15.68;;;9.55;;
64826;SDS011;51265;53.972;12.286;2022-09-29T10:04:10;11.10;;;8.05;;
64826;SDS011;51265;53.972;12.286;2022-09-29T10:06:37;13.07;;;8.25;;
64826;SDS011;51265;53.972;12.286;2022-09-29T10:09:03;9.52;;;7.53;;
64826;SDS011;51265;53.972;12.286;2022-09-29T10:11:30;11.52;;;8.75;;
64826;SDS011;51265;53.972;12.286;2022-09-29T10:14:04;11.85;;;8.23;;
64826;SDS011;51265;53.972;12.286;2022-09-29T10:16:48;10.80;;;8.35;;
64826;SDS011;51265;53.972;12.286;2022-09-29T10:19:20;11.93;;;7.78;;
64826;SDS011;51265;53.972;12.286;2022-09-29T10:21:47;11.60;;;8.20;;
64826;SDS011;51265;53.972;12.286;2022-09-29T10:24:27;11.48;;;7.28;;
64826;SDS011;51265;53.972;12.286;2022-09-29T10:26:58;12.07;;;7.32;;
64826;SDS011;51265;53.972;12.286;2022-09-29T10:29:32;10.63;;;6.90;;
64826;SDS011;51265;53.972;12.286;2022-09-29T10:32:22;9.38;;;6.20;;
64826;SDS011;51265;53.972;12.286;2022-09-29T10:38:01;9.30;;;7.10;;
64826;SDS011;51265;53.972;12.286;2022-09-29T10:40:30;10.13;;;6.63;;
64826;SDS011;51265;53.972;12.286;2022-09-29T10:42:57;8.68;;;6.32;;
64826;SDS011;51265;53.972;12.286;2022-09-29T10:50:29;8.85;;;6.10;;
64826;SDS011;51265;53.972;12.286;2022-09-29T10:52:59;10.15;;;6.03;;
64826;SDS011;51265;53.972;12.286;2022-09-29T10:55:30;9.73;;;6.28;;
64826;SDS011;51265;53.972;12.286;2022-09-29T10:58:06;7.63;;;5.90;;
64826;SDS011;51265;53.972;12.286;2022-09-29T11:00:45;8.68;;;5.68;;
64826;SDS011;51265;53.972;12.286;2022-09-29T11:06:08;6.70;;;5.25;;
64826;SDS011;51265;53.972;12.286;2022-09-29T11:14:25;6.43;;;4.50;;
64826;SDS011;51265;53.972;12.286;2022-09-29T11:16:59;8.23;;;5.13;;
64826;SDS011;51265;53.972;12.286;2022-09-29T11:19:28;6.97;;;5.03;;
64826;SDS011;51265;53.972;12.286;2022-09-29T11:22:11;6.90;;;4.13;;
64826;SDS011;51265;53.972;12.286;2022-09-29T11:38:39;6.78;;;4.10;;
64826;SDS011;51265;53.972;12.286;2022-09-29T11:44:06;9.48;;;5.20;;
64826;SDS011;51265;53.972;12.286;2022-09-29T11:49:39;5.70;;;4.03;;
64826;SDS011;51265;53.972;12.286;2022-09-29T11:55:29;4.47;;;3.03;;
64826;SDS011;51265;53.972;12.286;2022-09-29T12:17:35;5.25;;;4.60;;
64826;SDS011;51265;53.972;12.286;2022-09-29T12:20:06;9.32;;;4.45;;
64826;SDS011;51265;53.972;12.286;2022-09-29T12:22:42;6.70;;;4.40;;
64826;SDS011;51265;53.972;12.286;2022-09-29T12:25:15;8.88;;;4.97;;
64826;SDS011;51265;53.972;12.286;2022-09-29T12:27:45;7.72;;;4.15;;
64826;SDS011;51265;53.972;12.286;2022-09-29T12:30:17;6.10;;;4.30;;
64826;SDS011;51265;53.972;12.286;2022-09-29T12:33:33;5.28;;;3.85;;
64826;SDS011;51265;53.972;12.286;2022-09-29T12:38:29;5.13;;;4.07;;
64826;SDS011;51265;53.972;12.286;2022-09-29T12:41:10;6.70;;;4.22;;
64826;SDS011;51265;53.972;12.286;2022-09-29T12:46:11;7.60;;;3.67;;
64826;SDS011;51265;53.972;12.286;2022-09-29T13:01:58;4.95;;;2.90;;
64826;SDS011;51265;53.972;12.286;2022-09-29T13:29:12;5.80;;;2.78;;
64826;SDS011;51265;53.972;12.286;2022-09-29T13:31:41;5.35;;;2.90;;
64826;SDS011;51265;53.972;12.286;2022-09-29T13:34:18;4.28;;;2.80;;
64826;SDS011;51265;53.972;12.286;2022-09-29T13:36:46;4.40;;;2.83;;
64826;SDS011;51265;53.972;12.286;2022-09-29T13:39:23;3.42;;;2.75;;
64826;SDS011;51265;53.972;12.286;2022-09-29T13:41:55;4.78;;;3.03;;
64826;SDS011;51265;53.972;12.286;2022-09-29T13:44:22;5.18;;;2.35;;
64826;SDS011;51265;53.972;12.286;2022-09-29T13:46:53;5.38;;;2.40;;
64826;SDS011;51265;53.972;12.286;2022-09-29T13:54:37;3.17;;;2.60;;
64826;SDS011;51265;53.972;12.286;2022-09-29T13:59:40;4.07;;;2.63;;
64826;SDS011;51265;53.972;12.286;2022-09-29T14:04:52;6.90;;;2.80;;
64826;SDS011;51265;53.972;12.286;2022-09-29T14:07:39;2.97;;;2.67;;
64826;SDS011;51265;53.972;12.286;2022-09-29T14:15:41;3.95;;;2.72;;
64826;SDS011;51265;53.972;12.286;2022-09-29T14:18:16;4.78;;;2.70;;
64826;SDS011;51265;53.972;12.286;2022-09-29T14:20:56;4.07;;;2.45;;
64826;SDS011;51265;53.972;12.286;2022-09-29T14:31:57;2.67;;;1.92;;
64826;SDS011;51265;53.972;12.286;2022-09-29T14:34:27;3.80;;;1.63;;
64826;SDS011;51265;53.972;12.286;2022-09-29T14:36:56;3.05;;;1.95;;
64826;SDS011;51265;53.972;12.286;2022-09-29T14:39:24;2.90;;;1.80;;
64826;SDS011;51265;53.972;12.286;2022-09-29T14:41:52;3.15;;;1.70;;
64826;SDS011;51265;53.972;12.286;2022-09-29T14:44:20;5.22;;;1.60;;
64826;SDS011;51265;53.972;12.286;2022-09-29T14:46:54;7.57;;;1.63;;
64826;SDS011;51265;53.972;12.286;2022-09-29T15:03:14;2.15;;;1.50;;
64826;SDS011;51265;53.972;12.286;2022-09-29T15:06:01;2.90;;;1.30;;
64826;SDS011;51265;53.972;12.286;2022-09-29T15:08:58;3.05;;;1.52;;
64826;SDS011;51265;53.972;12.286;2022-09-29T15:23:03;2.78;;;1.80;;
64826;SDS011;51265;53.972;12.286;2022-09-29T15:27:58;3.00;;;1.67;;
64826;SDS011;51265;53.972;12.286;2022-09-29T15:30:27;5.03;;;1.75;;
64826;SDS011;51265;53.972;12.286;2022-09-29T15:33:02;2.75;;;1.85;;
64826;SDS011;51265;53.972;12.286;2022-09-29T15:35:42;5.05;;;1.67;;
64826;SDS011;51265;53.972;12.286;2022-09-29T15:38:18;4.32;;;2.40;;
64826;SDS011;51265;53.972;12.286;2022-09-29T15:41:03;4.30;;;2.58;;
64826;SDS011;51265;53.972;12.286;2022-09-29T15:43:41;4.30;;;3.30;;
64826;SDS011;51265;53.972;12.286;2022-09-29T15:46:18;4.00;;;3.47;;
64826;SDS011;51265;53.972;12.286;2022-09-29T15:51:38;4.90;;;3.75;;
64826;SDS011;51265;53.972;12.286;2022-09-29T15:54:05;5.18;;;4.05;;
64826;SDS011;51265;53.972;12.286;2022-09-29T15:56:35;5.45;;;3.70;;
64826;SDS011;51265;53.972;12.286;2022-09-29T15:59:38;5.00;;;3.70;;
64826;SDS011;51265;53.972;12.286;2022-09-29T16:02:10;6.97;;;4.20;;
64826;SDS011;51265;53.972;12.286;2022-09-29T16:04:42;4.97;;;3.30;;
64826;SDS011;51265;53.972;12.286;2022-09-29T16:07:18;4.07;;;3.45;;
64826;SDS011;51265;53.972;12.286;2022-09-29T16:09:48;3.92;;;3.17;;
64826;SDS011;51265;53.972;12.286;2022-09-29T16:12:16;6.00;;;4.68;;
64826;SDS011;51265;53.972;12.286;2022-09-29T16:14:45;15.73;;;10.57;;
64826;SDS011;51265;53.972;12.286;2022-09-29T16:17:11;30.58;;;22.83;;
64826;SDS011;51265;53.972;12.286;2022-09-29T16:19:38;14.18;;;10.32;;
64826;SDS011;51265;53.972;12.286;2022-09-29T16:22:13;7.55;;;4.68;;
64826;SDS011;51265;53.972;12.286;2022-09-29T16:24:54;5.25;;;3.95;;
64826;SDS011;51265;53.972;12.286;2022-09-29T16:27:43;5.22;;;3.65;;
64826;SDS011;51265;53.972;12.286;2022-09-29T16:30:31;5.82;;;3.33;;
64826;SDS011;51265;53.972;12.286;2022-09-29T16:33:02;4.28;;;3.55;;
64826;SDS011;51265;53.972;12.286;2022-09-29T16:40:51;7.22;;;5.07;;
64826;SDS011;51265;53.972;12.286;2022-09-29T16:43:19;5.78;;;4.35;;
64826;SDS011;51265;53.972;12.286;2022-09-29T16:45:50;6.28;;;4.30;;
64826;SDS011;51265;53.972;12.286;2022-09-29T16:48:19;4.20;;;3.80;;
64826;SDS011;51265;53.972;12.286;2022-09-29T16:50:47;5.03;;;3.95;;
64826;SDS011;51265;53.972;12.286;2022-09-29T16:53:22;5.55;;;3.85;;
64826;SDS011;51265;53.972;12.286;2022-09-29T16:56:20;5.82;;;4.03;;
64826;SDS011;51265;53.972;12.286;2022-09-29T17:01:47;4.72;;;3.50;;
64826;SDS011;51265;53.972;12.286;2022-09-29T17:04:14;5.97;;;3.50;;
64826;SDS011;51265;53.972;12.286;2022-09-29T17:06:43;7.38;;;3.95;;
64826;SDS011;51265;53.972;12.286;2022-09-29T17:09:15;5.07;;;3.95;;
64826;SDS011;51265;53.972;12.286;2022-09-29T17:11:44;4.43;;;3.65;;
64826;SDS011;51265;53.972;12.286;2022-09-29T17:14:13;4.55;;;3.38;;
64826;SDS011;51265;53.972;12.286;2022-09-29T17:16:39;4.10;;;3.25;;
64826;SDS011;51265;53.972;12.286;2022-09-29T17:19:08;5.93;;;4.28;;
64826;SDS011;51265;53.972;12.286;2022-09-29T17:21:35;4.65;;;3.88;;
64826;SDS011;51265;53.972;12.286;2022-09-29T17:24:01;9.68;;;4.68;;
64826;SDS011;51265;53.972;12.286;2022-09-29T17:26:39;5.45;;;3.83;;
64826;SDS011;51265;53.972;12.286;2022-09-29T17:29:28;5.40;;;4.20;;
64826;SDS011;51265;53.972;12.286;2022-09-29T17:31:54;6.00;;;4.97;;
64826;SDS011;51265;53.972;12.286;2022-09-29T17:34:20;7.90;;;5.03;;
64826;SDS011;51265;53.972;12.286;2022-09-29T17:36:54;8.10;;;5.25;;
64826;SDS011;51265;53.972;12.286;2022-09-29T17:39:25;10.27;;;5.60;;
64826;SDS011;51265;53.972;12.286;2022-09-29T17:41:51;8.52;;;5.93;;
64826;SDS011;51265;53.972;12.286;2022-09-29T17:44:17;6.63;;;5.47;;
64826;SDS011;51265;53.972;12.286;2022-09-29T17:46:43;9.23;;;5.85;;
64826;SDS011;51265;53.972;12.286;2022-09-29T17:49:10;9.23;;;6.18;;
64826;SDS011;51265;53.972;12.286;2022-09-29T17:51:37;11.50;;;7.72;;
64826;SDS011;51265;53.972;12.286;2022-09-29T17:54:03;10.55;;;7.22;;
64826;SDS011;51265;53.972;12.286;2022-09-29T17:56:29;10.80;;;7.30;;
64826;SDS011;51265;53.972;12.286;2022-09-29T17:59:02;9.98;;;7.03;;
64826;SDS011;51265;53.972;12.286;2022-09-29T18:01:30;12.13;;;7.35;;
64826;SDS011;51265;53.972;12.286;2022-09-29T18:03:59;10.45;;;7.10;;
64826;SDS011;51265;53.972;12.286;2022-09-29T18:06:25;8.88;;;7.25;;
64826;SDS011;51265;53.972;12.286;2022-09-29T18:08:53;8.98;;;7.00;;
64826;SDS011;51265;53.972;12.286;2022-09-29T18:11:21;11.02;;;6.53;;
64826;SDS011;51265;53.972;12.286;2022-09-29T18:13:48;7.43;;;5.85;;
64826;SDS011;51265;53.972;12.286;2022-09-29T18:16:16;7.72;;;5.55;;
64826;SDS011;51265;53.972;12.286;2022-09-29T18:18:43;7.43;;;5.80;;
64826;SDS011;51265;53.972;12.286;2022-09-29T18:21:10;8.63;;;5.90;;
64826;SDS011;51265;53.972;12.286;2022-09-29T18:23:38;6.75;;;4.70;;
64826;SDS011;51265;53.972;12.286;2022-09-29T18:26:05;6.57;;;5.03;;
64826;SDS011;51265;53.972;12.286;2022-09-29T18:28:31;7.22;;;4.68;;
64826;SDS011;51265;53.972;12.286;2022-09-29T18:31:02;6.97;;;4.40;;
64826;SDS011;51265;53.972;12.286;2022-09-29T18:33:31;5.75;;;4.57;;
64826;SDS011;51265;53.972;12.286;2022-09-29T18:35:58;5.82;;;4.53;;
64826;SDS011;51265;53.972;12.286;2022-09-29T18:38:26;6.35;;;4.75;;
64826;SDS011;51265;53.972;12.286;2022-09-29T18:40:53;4.90;;;4.18;;
64826;SDS011;51265;53.972;12.286;2022-09-29T18:43:20;6.03;;;4.55;;
64826;SDS011;51265;53.972;12.286;2022-09-29T18:45:49;6.07;;;4.00;;
64826;SDS011;51265;53.972;12.286;2022-09-29T18:48:16;5.82;;;3.72;;
64826;SDS011;51265;53.972;12.286;2022-09-29T18:50:44;5.30;;;4.38;;
64826;SDS011;51265;53.972;12.286;2022-09-29T18:53:12;5.97;;;4.38;;